weather station
Area: 10056 km2
The highest point: Plechý (1378 m.s.l.)
Total stations: 28
Stations online: 27
Stations offline: 1
Current weather
7°C

Meteorological map - weather stations in Jihočeský

. The meteorological maps show weather information from WARIO weather stations

Weather stations Jihočeský

 UpdatesNameStatusTemperatureHumidityWind speedWind direction
28.9.2020 21:01Bělčice6.5 °C100.0 %1.8 m/s SW
28.9.2020 21:01Borovany6.5 °C100.0 %1.4 m/s NW
28.9.2020 21:00Třeboň7.6 °C97.2 %0.0 m/s NW
28.9.2020 21:01Litvínovice - Mokré6.8 °C100.0 %0.9 m/s SW
28.9.2020 21:01Chrášťovice6.4 °C100.0 %1.0 m/s SW
28.9.2020 21:01Dubenec7.2 °C100.0 %1.1 m/s S
28.9.2020 21:01České Budějovice - Haklovy Dvory7.5 °C100.0 %0.6 m/s S
28.9.2020 21:00Jindřichův Hradec9.1 °C95.2 %0.0 m/s N
28.9.2020 21:01Kadov6.4 °C100.0 %0.0 m/s E
28.9.2020 21:01České Budějovice15.8 °C55.5 %0.6 m/s S
28.9.2020 21:01Lipno nad Vltavou3.8 °C100.0 %2.2 m/s S
28.9.2020 21:01Vyšší Brod7.7 °C99.8 %0.0 m/s SE
28.9.2020 21:01Dolní Vltavice6.4 °C93.0 %2.6 m/s NW
28.9.2020 21:00Hluboká nad Vltavou - Zámostí7.4 °C100.0 %0.7 m/s SW
28.9.2020 21:01Hluboká nad Vltavou11.0 °C77.7 %0.0 m/s E
28.9.2020 21:01Písek - Budějovické Předměstí7.2 °C100.0 %0.6 m/s S
28.9.2020 21:01Písek - Pražské Předměstí8.1 °C95.9 %0.0 m/s SW
28.9.2020 21:01Písek - Václavské Předměstí7.3 °C93.3 %0.6 m/s N
28.9.2020 21:01Radošovice7.2 °C96.2 %0.0 m/s E
28.9.2020 21:01Rataje7.3 °C100.0 %0.7 m/s NW
28.9.2020 21:01Sedlice6.1 °C100.0 %2.6 m/s NW
28.9.2020 14:13Sezimovo Ústí7.4 °C100.0 %1.6 m/s E
28.9.2020 21:00Stachy5.3 °C87.6 %0.0 m/s SW
28.9.2020 21:01Strakonice6.6 °C100.0 %0.0 m/s E
28.9.2020 21:01Tábor6.0 °C100.0 %2.8 m/s SW
28.9.2020 21:01Novosedly6.9 °C100.0 %2.8 m/s W
28.9.2020 21:01Veselí nad Lužnicí - Žíšov7.6 °C100.0 %0.0 m/s E
28.9.2020 21:00Milevsko7.0 °C100.0 %0.9 m/s NE
Email notifications
Enter your email address to subscribe to notifications about news at warioweather.com. Your email address will not be used for any purpose other than sending these emails and will not be provided to any third party. The subscription can be ended at any time.
All data are only indicative. The portal administrator has no responsibility for potentially incorrect data and related consequences. Publishing or further sharing of content from www.warioweather.com is only allowed with written consent from WANET s.r.o.